EmailTwitter


Observations de surface / Québec / EGDR

Régions: Québec | Canada | États-Unis | Europe | France | UK | Elsewhere
Station
Affichage
Infos & localisation pour EGDR | Aide pour décoder les METARs

Observations prises le 2017-02-24 à 09H50 UTC à CULDROSE (NAVY), UK (EGDR)

Etat du ciel: ciel variable.

Température: 9.0 Celsius

Point de rosée: 2.0 Celsius

Humidité relative: 62%

Facteur vent: 7.

Vents: Ouest-nord-ouest à 15 km/h ou 8 noeuds.

Pression au niveau moyen de la mer: 102.00 kilopascals.

Visibilité horizontale: 6.21 milles terrestres ou 9.94 kilomètres.

Observation METAR:

EGDR 240950Z 29008KT 9999 FEW014 SCT035 09/02 Q1020 RESHRA BLU=